sensor_id;sensor_type;location;lat;lon;timestamp;pressure;altitude;pressure_sealevel;temperature;humidity
13407;BME280;6774;48.208;10.766;2024-03-02T00:00:59;94492.47;;;7.44;88.82
13407;BME280;6774;48.208;10.766;2024-03-02T00:03:27;94489.81;;;7.37;88.81
13407;BME280;6774;48.208;10.766;2024-03-02T00:05:55;94492.88;;;7.41;89.04
13407;BME280;6774;48.208;10.766;2024-03-02T00:08:25;94488.78;;;7.38;88.58
13407;BME280;6774;48.208;10.766;2024-03-02T00:10:57;94492.81;;;7.34;89.00
13407;BME280;6774;48.208;10.766;2024-03-02T00:13:25;94488.38;;;7.35;88.59
13407;BME280;6774;48.208;10.766;2024-03-02T00:15:54;94486.38;;;7.37;89.05
13407;BME280;6774;48.208;10.766;2024-03-02T00:18:26;94488.78;;;7.38;88.67
13407;BME280;6774;48.208;10.766;2024-03-02T00:20:55;94493.25;;;7.38;88.57
13407;BME280;6774;48.208;10.766;2024-03-02T00:23:27;94492.38;;;7.31;88.96
13407;BME280;6774;48.208;10.766;2024-03-02T00:25:57;94487.13;;;7.31;88.75
13407;BME280;6774;48.208;10.766;2024-03-02T00:28:27;94501.25;;;7.30;88.71
13407;BME280;6774;48.208;10.766;2024-03-02T00:30:58;94497.41;;;7.26;89.01
13407;BME280;6774;48.208;10.766;2024-03-02T00:33:27;94499.78;;;7.21;89.29
13407;BME280;6774;48.208;10.766;2024-03-02T00:35:56;94501.19;;;7.17;89.43
13407;BME280;6774;48.208;10.766;2024-03-02T00:38:25;94508.03;;;7.18;89.21
13407;BME280;6774;48.208;10.766;2024-03-02T00:40:54;94503.56;;;7.11;88.77
13407;BME280;6774;48.208;10.766;2024-03-02T00:43:41;94506.75;;;7.07;88.72
13407;BME280;6774;48.208;10.766;2024-03-02T00:46:16;94507.31;;;7.02;88.51
13407;BME280;6774;48.208;10.766;2024-03-02T00:48:54;94509.13;;;7.02;88.84
13407;BME280;6774;48.208;10.766;2024-03-02T00:51:24;94510.34;;;6.99;89.10
13407;BME280;6774;48.208;10.766;2024-03-02T00:53:54;94512.13;;;6.99;88.81
13407;BME280;6774;48.208;10.766;2024-03-02T00:56:24;94509.53;;;6.99;89.19
13407;BME280;6774;48.208;10.766;2024-03-02T00:58:53;94504.28;;;6.99;89.20
13407;BME280;6774;48.208;10.766;2024-03-02T01:01:21;94507.31;;;7.02;89.13
13407;BME280;6774;48.208;10.766;2024-03-02T01:03:49;94499.69;;;7.07;89.28
13407;BME280;6774;48.208;10.766;2024-03-02T01:06:17;94498.31;;;7.11;88.87
13407;BME280;6774;48.208;10.766;2024-03-02T01:08:45;94492.69;;;7.15;88.71
13407;BME280;6774;48.208;10.766;2024-03-02T01:11:18;94490.69;;;7.17;88.45
13407;BME280;6774;48.208;10.766;2024-03-02T01:13:49;94499.16;;;7.19;88.50
13407;BME280;6774;48.208;10.766;2024-03-02T01:16:18;94488.69;;;7.19;88.39
13407;BME280;6774;48.208;10.766;2024-03-02T01:18:46;94491.09;;;7.20;88.10
13407;BME280;6774;48.208;10.766;2024-03-02T01:21:14;94490.75;;;7.23;87.89
13407;BME280;6774;48.208;10.766;2024-03-02T01:23:42;94489.06;;;7.16;87.84
13407;BME280;6774;48.208;10.766;2024-03-02T01:26:10;94491.84;;;7.07;88.07
13407;BME280;6774;48.208;10.766;2024-03-02T01:28:39;94486.97;;;7.04;88.66
13407;BME280;6774;48.208;10.766;2024-03-02T01:31:07;94489.22;;;7.07;88.32
13407;BME280;6774;48.208;10.766;2024-03-02T01:33:35;94485.97;;;7.05;88.46
13407;BME280;6774;48.208;10.766;2024-03-02T01:36:03;94486.19;;;7.10;88.90
13407;BME280;6774;48.208;10.766;2024-03-02T01:38:31;94477.31;;;7.11;88.83
13407;BME280;6774;48.208;10.766;2024-03-02T01:40:58;94487.06;;;7.18;88.61
13407;BME280;6774;48.208;10.766;2024-03-02T01:43:26;94481.19;;;7.16;88.36
13407;BME280;6774;48.208;10.766;2024-03-02T01:45:55;94480.59;;;7.13;87.98
13407;BME280;6774;48.208;10.766;2024-03-02T01:48:24;94477.13;;;7.13;88.42
13407;BME280;6774;48.208;10.766;2024-03-02T01:50:52;94476.72;;;7.09;88.38
13407;BME280;6774;48.208;10.766;2024-03-02T01:53:20;94481.72;;;7.04;88.70
13407;BME280;6774;48.208;10.766;2024-03-02T01:55:47;94476.84;;;7.01;88.91
13407;BME280;6774;48.208;10.766;2024-03-02T01:58:16;94487.72;;;6.98;89.08
13407;BME280;6774;48.208;10.766;2024-03-02T02:00:44;94484.50;;;6.96;88.86
13407;BME280;6774;48.208;10.766;2024-03-02T02:03:13;94489.09;;;6.94;88.80
13407;BME280;6774;48.208;10.766;2024-03-02T02:05:42;94485.84;;;6.92;89.08
13407;BME280;6774;48.208;10.766;2024-03-02T02:08:09;94477.19;;;6.92;89.23
13407;BME280;6774;48.208;10.766;2024-03-02T02:10:37;94478.00;;;6.92;89.29
13407;BME280;6774;48.208;10.766;2024-03-02T02:13:05;94481.22;;;6.94;89.20
13407;BME280;6774;48.208;10.766;2024-03-02T02:15:34;94482.03;;;6.95;89.55
13407;BME280;6774;48.208;10.766;2024-03-02T02:18:03;94482.03;;;6.95;89.20
13407;BME280;6774;48.208;10.766;2024-03-02T02:20:33;94482.88;;;6.95;88.93
13407;BME280;6774;48.208;10.766;2024-03-02T02:23:03;94471.53;;;6.95;88.84
13407;BME280;6774;48.208;10.766;2024-03-02T02:25:32;94477.56;;;6.89;88.97
13407;BME280;6774;48.208;10.766;2024-03-02T02:28:00;94466.59;;;6.78;88.69
13407;BME280;6774;48.208;10.766;2024-03-02T02:30:29;94467.41;;;6.79;88.82
13407;BME280;6774;48.208;10.766;2024-03-02T02:32:58;94472.66;;;6.79;89.07
13407;BME280;6774;48.208;10.766;2024-03-02T02:35:26;94471.47;;;6.81;88.75
13407;BME280;6774;48.208;10.766;2024-03-02T02:37:55;94466.63;;;6.85;88.75
13407;BME280;6774;48.208;10.766;2024-03-02T02:40:24;94462.66;;;6.89;88.34
13407;BME280;6774;48.208;10.766;2024-03-02T02:42:52;94452.78;;;6.91;88.90
13407;BME280;6774;48.208;10.766;2024-03-02T02:45:20;94459.03;;;6.90;88.46
13407;BME280;6774;48.208;10.766;2024-03-02T02:47:49;94459.63;;;6.92;88.46
13407;BME280;6774;48.208;10.766;2024-03-02T02:50:17;94462.25;;;6.92;88.88
13407;BME280;6774;48.208;10.766;2024-03-02T02:52:44;94455.00;;;6.94;88.84
13407;BME280;6774;48.208;10.766;2024-03-02T02:55:13;94459.44;;;6.94;88.91
13407;BME280;6774;48.208;10.766;2024-03-02T02:57:43;94465.50;;;6.94;88.53
13407;BME280;6774;48.208;10.766;2024-03-02T03:00:13;94471.13;;;6.91;88.71
13407;BME280;6774;48.208;10.766;2024-03-02T03:02:46;94476.75;;;6.88;88.74
13407;BME280;6774;48.208;10.766;2024-03-02T03:05:16;94476.16;;;6.86;88.86
13407;BME280;6774;48.208;10.766;2024-03-02T03:07:43;94469.91;;;6.87;88.52
13407;BME280;6774;48.208;10.766;2024-03-02T03:10:12;94483.19;;;6.85;88.58
13407;BME280;6774;48.208;10.766;2024-03-02T03:12:41;94482.38;;;6.85;88.85
13407;BME280;6774;48.208;10.766;2024-03-02T03:15:12;94486.19;;;6.82;88.40
13407;BME280;6774;48.208;10.766;2024-03-02T03:17:40;94483.88;;;6.73;88.20
13407;BME280;6774;48.208;10.766;2024-03-02T03:20:09;94488.13;;;6.74;88.11
13407;BME280;6774;48.208;10.766;2024-03-02T03:22:37;94484.28;;;6.70;87.98
13407;BME280;6774;48.208;10.766;2024-03-02T03:25:05;94488.22;;;6.59;87.87
13407;BME280;6774;48.208;10.766;2024-03-02T03:27:35;94488.16;;;6.52;87.85
13407;BME280;6774;48.208;10.766;2024-03-02T03:30:03;94496.81;;;6.53;87.95
13407;BME280;6774;48.208;10.766;2024-03-02T03:32:34;94498.63;;;6.52;87.69
13407;BME280;6774;48.208;10.766;2024-03-02T03:35:02;94506.88;;;6.49;87.93
13407;BME280;6774;48.208;10.766;2024-03-02T03:37:30;94501.81;;;6.48;87.94
13407;BME280;6774;48.208;10.766;2024-03-02T03:40:02;94506.22;;;6.47;88.30
13407;BME280;6774;48.208;10.766;2024-03-02T03:42:33;94505.88;;;6.50;88.11
13407;BME280;6774;48.208;10.766;2024-03-02T03:45:01;94501.63;;;6.49;88.49
13407;BME280;6774;48.208;10.766;2024-03-02T03:47:31;94512.25;;;6.41;88.60
13407;BME280;6774;48.208;10.766;2024-03-02T03:50:00;94510.53;;;6.34;89.46
13407;BME280;6774;48.208;10.766;2024-03-02T03:52:29;94501.75;;;6.41;89.11
13407;BME280;6774;48.208;10.766;2024-03-02T03:54:57;94512.84;;;6.43;89.01
13407;BME280;6774;48.208;10.766;2024-03-02T03:57:25;94509.66;;;6.48;88.79
13407;BME280;6774;48.208;10.766;2024-03-02T03:59:53;94510.31;;;6.50;88.95
13407;BME280;6774;48.208;10.766;2024-03-02T04:02:21;94509.13;;;6.52;88.83
13407;BME280;6774;48.208;10.766;2024-03-02T04:04:48;94505.09;;;6.56;88.87
13407;BME280;6774;48.208;10.766;2024-03-02T04:07:18;94517.22;;;6.57;89.18
13407;BME280;6774;48.208;10.766;2024-03-02T04:09:45;94505.41;;;6.47;89.52
13407;BME280;6774;48.208;10.766;2024-03-02T04:12:13;94508.22;;;6.45;89.63
13407;BME280;6774;48.208;10.766;2024-03-02T04:14:41;94515.56;;;6.50;89.25
13407;BME280;6774;48.208;10.766;2024-03-02T04:17:09;94521.41;;;6.52;89.00
13407;BME280;6774;48.208;10.766;2024-03-02T04:19:37;94519.59;;;6.52;88.86
13407;BME280;6774;48.208;10.766;2024-03-02T04:22:05;94530.69;;;6.54;89.21
13407;BME280;6774;48.208;10.766;2024-03-02T04:24:48;94526.47;;;6.53;89.49
13407;BME280;6774;48.208;10.766;2024-03-02T04:27:15;94525.28;;;6.56;89.21
13407;BME280;6774;48.208;10.766;2024-03-02T04:29:43;94534.13;;;6.55;89.18
13407;BME280;6774;48.208;10.766;2024-03-02T04:32:11;94531.31;;;6.56;89.29
13407;BME280;6774;48.208;10.766;2024-03-02T04:34:39;94538.19;;;6.57;89.02
13407;BME280;6774;48.208;10.766;2024-03-02T04:37:07;94533.75;;;6.58;88.85
13407;BME280;6774;48.208;10.766;2024-03-02T04:39:35;94529.16;;;6.60;89.17
13407;BME280;6774;48.208;10.766;2024-03-02T04:42:04;94537.63;;;6.62;89.18
13407;BME280;6774;48.208;10.766;2024-03-02T04:44:32;94542.31;;;6.67;88.76
13407;BME280;6774;48.208;10.766;2024-03-02T04:47:00;94543.56;;;6.71;88.81
13407;BME280;6774;48.208;10.766;2024-03-02T04:49:28;94534.09;;;6.70;88.65
13407;BME280;6774;48.208;10.766;2024-03-02T04:51:56;94534.44;;;6.67;88.88
13407;BME280;6774;48.208;10.766;2024-03-02T04:54:25;94537.06;;;6.67;88.91
13407;BME280;6774;48.208;10.766;2024-03-02T04:56:52;94539.44;;;6.62;89.32
13407;BME280;6774;48.208;10.766;2024-03-02T04:59:21;94540.63;;;6.59;89.19
13407;BME280;6774;48.208;10.766;2024-03-02T05:01:49;94536.56;;;6.56;89.33
13407;BME280;6774;48.208;10.766;2024-03-02T05:04:17;94538.63;;;6.61;89.05
13407;BME280;6774;48.208;10.766;2024-03-02T05:06:45;94541.50;;;6.66;88.66
13407;BME280;6774;48.208;10.766;2024-03-02T05:09:19;94542.31;;;6.67;88.31
13407;BME280;6774;48.208;10.766;2024-03-02T05:11:48;94544.31;;;6.65;88.30
13407;BME280;6774;48.208;10.766;2024-03-02T05:14:51;94537.06;;;6.67;87.93
13407;BME280;6774;48.208;10.766;2024-03-02T05:17:19;94546.31;;;6.63;87.83
13407;BME280;6774;48.208;10.766;2024-03-02T05:19:47;94544.06;;;6.60;88.06
13407;BME280;6774;48.208;10.766;2024-03-02T05:22:14;94549.03;;;6.54;87.95
13407;BME280;6774;48.208;10.766;2024-03-02T05:24:43;94540.31;;;6.47;88.15
13407;BME280;6774;48.208;10.766;2024-03-02T05:27:11;94546.94;;;6.43;88.02
13407;BME280;6774;48.208;10.766;2024-03-02T05:29:39;94540.78;;;6.36;88.17
13407;BME280;6774;48.208;10.766;2024-03-02T05:32:08;94543.09;;;6.24;88.54
13407;BME280;6774;48.208;10.766;2024-03-02T05:34:35;94541.00;;;6.20;88.44
13407;BME280;6774;48.208;10.766;2024-03-02T05:37:03;94539.84;;;6.22;88.58
13407;BME280;6774;48.208;10.766;2024-03-02T05:39:31;94539.38;;;6.19;88.41
13407;BME280;6774;48.208;10.766;2024-03-02T05:41:59;94535.34;;;6.16;88.42
13407;BME280;6774;48.208;10.766;2024-03-02T05:44:27;94537.25;;;6.08;88.60
13407;BME280;6774;48.208;10.766;2024-03-02T05:46:55;94540.59;;;6.02;88.79
13407;BME280;6774;48.208;10.766;2024-03-02T05:49:24;94536.81;;;6.04;88.73
13407;BME280;6774;48.208;10.766;2024-03-02T05:51:51;94535.34;;;6.02;88.61
13407;BME280;6774;48.208;10.766;2024-03-02T05:54:20;94538.63;;;6.04;88.52
13407;BME280;6774;48.208;10.766;2024-03-02T05:56:47;94529.50;;;5.99;88.47
13407;BME280;6774;48.208;10.766;2024-03-02T05:59:15;94536.34;;;6.01;88.72
13407;BME280;6774;48.208;10.766;2024-03-02T06:01:44;94534.34;;;6.03;88.81
13407;BME280;6774;48.208;10.766;2024-03-02T06:04:13;94536.63;;;6.06;88.45
13407;BME280;6774;48.208;10.766;2024-03-02T06:06:42;94532.50;;;5.96;88.53
13407;BME280;6774;48.208;10.766;2024-03-02T06:09:10;94527.97;;;5.90;88.70
13407;BME280;6774;48.208;10.766;2024-03-02T06:11:40;94525.25;;;5.84;88.71
13407;BME280;6774;48.208;10.766;2024-03-02T06:14:08;94538.50;;;5.82;88.88
13407;BME280;6774;48.208;10.766;2024-03-02T06:16:36;94531.47;;;5.83;88.90
13407;BME280;6774;48.208;10.766;2024-03-02T06:19:04;94534.72;;;5.85;89.10
13407;BME280;6774;48.208;10.766;2024-03-02T06:21:33;94535.28;;;5.80;89.17
13407;BME280;6774;48.208;10.766;2024-03-02T06:24:03;94532.03;;;5.78;89.05
13407;BME280;6774;48.208;10.766;2024-03-02T06:26:31;94540.22;;;5.75;89.00
13407;BME280;6774;48.208;10.766;2024-03-02T06:28:59;94535.66;;;5.77;88.83
13407;BME280;6774;48.208;10.766;2024-03-02T06:31:28;94538.50;;;5.82;88.27
13407;BME280;6774;48.208;10.766;2024-03-02T06:33:56;94538.97;;;5.71;87.91
13407;BME280;6774;48.208;10.766;2024-03-02T06:36:24;94548.88;;;5.76;88.13
13407;BME280;6774;48.208;10.766;2024-03-02T06:38:52;94546.38;;;5.82;88.18
13407;BME280;6774;48.208;10.766;2024-03-02T06:41:21;94542.03;;;5.89;88.49
13407;BME280;6774;48.208;10.766;2024-03-02T06:43:49;94540.41;;;6.03;88.15
13407;BME280;6774;48.208;10.766;2024-03-02T06:46:17;94544.09;;;6.09;87.91
13407;BME280;6774;48.208;10.766;2024-03-02T06:48:45;94537.38;;;6.21;88.21
13407;BME280;6774;48.208;10.766;2024-03-02T06:51:13;94543.44;;;6.21;88.50
13407;BME280;6774;48.208;10.766;2024-03-02T06:53:42;94538.91;;;6.30;88.06
13407;BME280;6774;48.208;10.766;2024-03-02T06:56:10;94544.13;;;6.30;87.78
13407;BME280;6774;48.208;10.766;2024-03-02T06:58:39;94535.81;;;6.41;87.52
13407;BME280;6774;48.208;10.766;2024-03-02T07:01:07;94545.19;;;6.50;87.81
13407;BME280;6774;48.208;10.766;2024-03-02T07:03:34;94547.81;;;6.50;87.30
13407;BME280;6774;48.208;10.766;2024-03-02T07:06:03;94545.44;;;6.55;87.33
13407;BME280;6774;48.208;10.766;2024-03-02T07:08:31;94545.13;;;6.65;87.20
13407;BME280;6774;48.208;10.766;2024-03-02T07:10:59;94554.66;;;6.73;86.86
13407;BME280;6774;48.208;10.766;2024-03-02T07:13:27;94558.19;;;6.80;86.80
13407;BME280;6774;48.208;10.766;2024-03-02T07:15:56;94556.03;;;6.90;86.74
13407;BME280;6774;48.208;10.766;2024-03-02T07:18:49;94563.41;;;7.01;87.05
13407;BME280;6774;48.208;10.766;2024-03-02T07:21:18;94553.66;;;7.17;87.05
13407;BME280;6774;48.208;10.766;2024-03-02T07:23:47;94559.78;;;7.24;86.34
13407;BME280;6774;48.208;10.766;2024-03-02T07:26:15;94555.06;;;7.47;86.36
13407;BME280;6774;48.208;10.766;2024-03-02T07:28:48;94548.38;;;7.73;86.55
13407;BME280;6774;48.208;10.766;2024-03-02T07:31:17;94550.53;;;7.97;85.95
13407;BME280;6774;48.208;10.766;2024-03-02T07:33:45;94551.22;;;8.19;85.13
13407;BME280;6774;48.208;10.766;2024-03-02T07:36:14;94549.13;;;8.42;85.48
13407;BME280;6774;48.208;10.766;2024-03-02T07:38:43;94550.00;;;8.69;85.27
13407;BME280;6774;48.208;10.766;2024-03-02T07:41:11;94552.47;;;8.91;84.40
13407;BME280;6774;48.208;10.766;2024-03-02T07:43:39;94538.31;;;9.11;84.09
13407;BME280;6774;48.208;10.766;2024-03-02T07:46:07;94550.44;;;9.32;83.29
13407;BME280;6774;48.208;10.766;2024-03-02T07:48:36;94542.13;;;9.49;82.77
13407;BME280;6774;48.208;10.766;2024-03-02T07:51:04;94550.03;;;9.49;80.07
13407;BME280;6774;48.208;10.766;2024-03-02T07:53:32;94542.34;;;9.60;79.65
13407;BME280;6774;48.208;10.766;2024-03-02T07:55:59;94553.44;;;9.82;79.98
13407;BME280;6774;48.208;10.766;2024-03-02T07:58:29;94543.88;;;10.01;79.83
13407;BME280;6774;48.208;10.766;2024-03-02T08:00:58;94545.44;;;10.22;79.35
13407;BME280;6774;48.208;10.766;2024-03-02T08:03:28;94555.09;;;10.41;78.61
13407;BME280;6774;48.208;10.766;2024-03-02T08:05:57;94555.59;;;10.12;77.29
13407;BME280;6774;48.208;10.766;2024-03-02T08:08:25;94545.84;;;10.12;77.32
13407;BME280;6774;48.208;10.766;2024-03-02T08:10:53;94552.69;;;10.33;77.48
13407;BME280;6774;48.208;10.766;2024-03-02T08:13:21;94546.53;;;10.52;76.93
13407;BME280;6774;48.208;10.766;2024-03-02T08:15:49;94546.00;;;10.75;76.87
13407;BME280;6774;48.208;10.766;2024-03-02T08:18:18;94542.16;;;11.03;76.81
13407;BME280;6774;48.208;10.766;2024-03-02T08:20:46;94549.28;;;11.34;76.62
13407;BME280;6774;48.208;10.766;2024-03-02T08:23:15;94544.03;;;11.52;74.37
13407;BME280;6774;48.208;10.766;2024-03-02T08:25:42;94548.03;;;11.61;73.03
13407;BME280;6774;48.208;10.766;2024-03-02T08:28:11;94548.22;;;11.60;72.17
13407;BME280;6774;48.208;10.766;2024-03-02T08:30:39;94545.75;;;11.90;71.24
13407;BME280;6774;48.208;10.766;2024-03-02T08:33:07;94543.97;;;12.20;72.09
13407;BME280;6774;48.208;10.766;2024-03-02T08:35:34;94547.50;;;12.14;70.59
13407;BME280;6774;48.208;10.766;2024-03-02T08:38:03;94548.69;;;12.37;70.19
13407;BME280;6774;48.208;10.766;2024-03-02T08:40:32;94537.66;;;12.40;68.79
13407;BME280;6774;48.208;10.766;2024-03-02T08:43:00;94543.59;;;12.53;70.23
13407;BME280;6774;48.208;10.766;2024-03-02T08:45:28;94547.91;;;12.66;68.97
13407;BME280;6774;48.208;10.766;2024-03-02T08:47:56;94543.16;;;12.98;68.38
13407;BME280;6774;48.208;10.766;2024-03-02T08:50:24;94551.94;;;12.99;67.25
13407;BME280;6774;48.208;10.766;2024-03-02T08:52:52;94548.78;;;13.20;66.99
13407;BME280;6774;48.208;10.766;2024-03-02T08:55:20;94549.84;;;13.31;66.54
13407;BME280;6774;48.208;10.766;2024-03-02T08:57:49;94544.78;;;13.29;66.18
13407;BME280;6774;48.208;10.766;2024-03-02T09:00:17;94542.63;;;13.50;66.18
13407;BME280;6774;48.208;10.766;2024-03-02T09:02:46;94540.69;;;13.57;65.89
13407;BME280;6774;48.208;10.766;2024-03-02T09:05:13;94535.03;;;13.65;65.12
13407;BME280;6774;48.208;10.766;2024-03-02T09:07:41;94543.31;;;13.57;64.63
13407;BME280;6774;48.208;10.766;2024-03-02T09:10:10;94542.63;;;13.85;65.40
13407;BME280;6774;48.208;10.766;2024-03-02T09:12:38;94537.66;;;13.88;64.35
13407;BME280;6774;48.208;10.766;2024-03-02T09:15:08;94538.47;;;14.01;64.77
13407;BME280;6774;48.208;10.766;2024-03-02T09:17:35;94532.25;;;13.83;63.07
13407;BME280;6774;48.208;10.766;2024-03-02T09:20:04;94540.69;;;13.92;64.95
13407;BME280;6774;48.208;10.766;2024-03-02T09:22:32;94538.22;;;14.14;64.15
13407;BME280;6774;48.208;10.766;2024-03-02T09:25:00;94535.41;;;14.56;64.62
13407;BME280;6774;48.208;10.766;2024-03-02T09:27:28;94538.13;;;14.72;62.33
13407;BME280;6774;48.208;10.766;2024-03-02T09:29:56;94537.25;;;14.84;60.07
13407;BME280;6774;48.208;10.766;2024-03-02T09:32:25;94529.09;;;15.02;61.32
13407;BME280;6774;48.208;10.766;2024-03-02T09:34:53;94532.50;;;15.31;60.69
13407;BME280;6774;48.208;10.766;2024-03-02T09:37:22;94526.56;;;15.57;59.90
13407;BME280;6774;48.208;10.766;2024-03-02T09:39:50;94521.88;;;15.81;59.45
13407;BME280;6774;48.208;10.766;2024-03-02T09:42:19;94530.59;;;15.77;58.60
13407;BME280;6774;48.208;10.766;2024-03-02T09:44:50;94512.44;;;16.29;58.83
13407;BME280;6774;48.208;10.766;2024-03-02T09:47:18;94510.53;;;16.68;58.75
13407;BME280;6774;48.208;10.766;2024-03-02T09:49:47;94504.69;;;16.98;57.41
13407;BME280;6774;48.208;10.766;2024-03-02T09:52:16;94500.16;;;17.26;56.90
13407;BME280;6774;48.208;10.766;2024-03-02T09:54:43;94502.69;;;17.43;55.69
13407;BME280;6774;48.208;10.766;2024-03-02T09:57:11;94503.16;;;17.34;54.87
13407;BME280;6774;48.208;10.766;2024-03-02T09:59:39;94499.66;;;17.61;54.39
13407;BME280;6774;48.208;10.766;2024-03-02T10:02:07;94503.53;;;17.75;54.97
13407;BME280;6774;48.208;10.766;2024-03-02T10:04:35;94501.25;;;17.62;53.85
13407;BME280;6774;48.208;10.766;2024-03-02T10:07:15;94499.84;;;17.86;53.49
13407;BME280;6774;48.208;10.766;2024-03-02T10:09:44;94501.41;;;17.77;53.56
13407;BME280;6774;48.208;10.766;2024-03-02T10:12:13;94496.13;;;17.87;54.74
13407;BME280;6774;48.208;10.766;2024-03-02T10:14:42;94500.88;;;17.80;52.23
13407;BME280;6774;48.208;10.766;2024-03-02T10:17:11;94492.28;;;17.73;51.94
13407;BME280;6774;48.208;10.766;2024-03-02T10:19:39;94489.63;;;17.73;52.79
13407;BME280;6774;48.208;10.766;2024-03-02T10:22:08;94489.13;;;17.76;51.99
13407;BME280;6774;48.208;10.766;2024-03-02T10:24:39;94495.25;;;18.24;51.32
13407;BME280;6774;48.208;10.766;2024-03-02T10:27:09;94491.75;;;18.76;50.87
13407;BME280;6774;48.208;10.766;2024-03-02T10:29:38;94493.19;;;19.35;50.89
13407;BME280;6774;48.208;10.766;2024-03-02T10:32:10;94487.31;;;19.48;48.66
13407;BME280;6774;48.208;10.766;2024-03-02T10:34:40;94482.16;;;20.12;48.71
13407;BME280;6774;48.208;10.766;2024-03-02T10:37:08;94476.19;;;20.46;47.42
13407;BME280;6774;48.208;10.766;2024-03-02T10:39:39;94474.38;;;20.16;47.61
13407;BME280;6774;48.208;10.766;2024-03-02T10:42:08;94468.19;;;20.31;48.37
13407;BME280;6774;48.208;10.766;2024-03-02T10:44:36;94469.63;;;20.72;47.45
13407;BME280;6774;48.208;10.766;2024-03-02T10:47:05;94458.84;;;21.27;46.18
13407;BME280;6774;48.208;10.766;2024-03-02T10:49:33;94457.34;;;21.50;47.09
13407;BME280;6774;48.208;10.766;2024-03-02T10:52:01;94447.31;;;21.61;45.84
13407;BME280;6774;48.208;10.766;2024-03-02T10:54:29;94450.28;;;21.59;45.13
13407;BME280;6774;48.208;10.766;2024-03-02T10:57:07;94441.69;;;21.23;45.47
13407;BME280;6774;48.208;10.766;2024-03-02T10:59:37;94433.75;;;20.63;45.38
13407;BME280;6774;48.208;10.766;2024-03-02T11:02:06;94433.88;;;20.33;46.79
13407;BME280;6774;48.208;10.766;2024-03-02T11:04:38;94437.19;;;20.04;47.29
13407;BME280;6774;48.208;10.766;2024-03-02T11:07:09;94436.09;;;20.10;47.87
13407;BME280;6774;48.208;10.766;2024-03-02T11:09:41;94426.50;;;19.94;48.61
13407;BME280;6774;48.208;10.766;2024-03-02T11:12:13;94419.44;;;20.18;48.62
13407;BME280;6774;48.208;10.766;2024-03-02T11:14:44;94427.50;;;20.18;49.03
13407;BME280;6774;48.208;10.766;2024-03-02T11:17:14;94426.81;;;19.77;48.53
13407;BME280;6774;48.208;10.766;2024-03-02T11:19:44;94419.03;;;19.86;48.89
13407;BME280;6774;48.208;10.766;2024-03-02T11:22:13;94423.53;;;20.01;49.39
13407;BME280;6774;48.208;10.766;2024-03-02T11:24:47;94419.91;;;20.46;49.15
13407;BME280;6774;48.208;10.766;2024-03-02T11:30:51;94407.78;;;21.66;46.86
13407;BME280;6774;48.208;10.766;2024-03-02T11:33:26;94400.63;;;21.85;46.61
13407;BME280;6774;48.208;10.766;2024-03-02T11:35:56;94400.50;;;21.96;45.27
13407;BME280;6774;48.208;10.766;2024-03-02T11:38:30;94391.28;;;22.02;45.91
13407;BME280;6774;48.208;10.766;2024-03-02T11:41:00;94391.81;;;21.80;45.97
13407;BME280;6774;48.208;10.766;2024-03-02T11:43:29;94381.47;;;21.68;45.61
13407;BME280;6774;48.208;10.766;2024-03-02T11:45:59;94380.59;;;21.49;46.29
13407;BME280;6774;48.208;10.766;2024-03-02T11:48:31;94376.31;;;21.09;46.14
13407;BME280;6774;48.208;10.766;2024-03-02T11:51:00;94367.44;;;20.79;47.24
13407;BME280;6774;48.208;10.766;2024-03-02T11:53:28;94358.56;;;20.34;47.19
13407;BME280;6774;48.208;10.766;2024-03-02T11:56:01;94359.34;;;20.45;47.02
13407;BME280;6774;48.208;10.766;2024-03-02T11:58:30;94359.78;;;20.62;48.49
13407;BME280;6774;48.208;10.766;2024-03-02T12:00:58;94350.09;;;20.66;47.54
13407;BME280;6774;48.208;10.766;2024-03-02T12:03:26;94356.63;;;20.89;47.55
13407;BME280;6774;48.208;10.766;2024-03-02T12:05:55;94356.22;;;20.72;48.10
13407;BME280;6774;48.208;10.766;2024-03-02T12:08:23;94347.13;;;20.18;47.55
13407;BME280;6774;48.208;10.766;2024-03-02T12:10:58;94343.41;;;20.09;50.30
13407;BME280;6774;48.208;10.766;2024-03-02T12:13:28;94346.81;;;19.60;51.20
13407;BME280;6774;48.208;10.766;2024-03-02T12:15:57;94330.84;;;19.04;51.94
13407;BME280;6774;48.208;10.766;2024-03-02T12:18:25;94334.88;;;18.87;53.86
13407;BME280;6774;48.208;10.766;2024-03-02T12:20:53;94333.78;;;18.83;52.83
13407;BME280;6774;48.208;10.766;2024-03-02T12:23:24;94329.22;;;18.47;52.55
13407;BME280;6774;48.208;10.766;2024-03-02T12:25:53;94325.97;;;18.35;52.63
13407;BME280;6774;48.208;10.766;2024-03-02T12:28:21;94321.19;;;18.42;53.37
13407;BME280;6774;48.208;10.766;2024-03-02T12:30:49;94315.84;;;18.53;51.99
13407;BME280;6774;48.208;10.766;2024-03-02T12:33:20;94318.03;;;18.81;51.56
13407;BME280;6774;48.208;10.766;2024-03-02T12:35:49;94319.09;;;18.95;50.03
13407;BME280;6774;48.208;10.766;2024-03-02T12:38:17;94312.13;;;19.15;50.88
13407;BME280;6774;48.208;10.766;2024-03-02T12:40:44;94309.38;;;19.60;51.44
13407;BME280;6774;48.208;10.766;2024-03-02T12:43:12;94305.84;;;19.65;49.62
13407;BME280;6774;48.208;10.766;2024-03-02T12:45:40;94299.69;;;19.65;49.68
13407;BME280;6774;48.208;10.766;2024-03-02T12:48:08;94286.97;;;20.01;49.27
13407;BME280;6774;48.208;10.766;2024-03-02T12:50:37;94282.97;;;19.93;49.59
13407;BME280;6774;48.208;10.766;2024-03-02T12:53:05;94282.31;;;20.16;49.07
13407;BME280;6774;48.208;10.766;2024-03-02T12:55:32;94283.72;;;19.34;50.85
13407;BME280;6774;48.208;10.766;2024-03-02T12:58:00;94276.31;;;19.06;52.11
13407;BME280;6774;48.208;10.766;2024-03-02T13:00:29;94282.50;;;18.75;52.73
13407;BME280;6774;48.208;10.766;2024-03-02T13:03:01;94281.69;;;18.75;53.51
13407;BME280;6774;48.208;10.766;2024-03-02T13:05:30;94287.00;;;18.65;53.78
13407;BME280;6774;48.208;10.766;2024-03-02T13:07:59;94277.66;;;18.47;54.61
13407;BME280;6774;48.208;10.766;2024-03-02T13:10:30;94276.84;;;18.41;53.97
13407;BME280;6774;48.208;10.766;2024-03-02T13:12:58;94275.22;;;18.30;54.87
13407;BME280;6774;48.208;10.766;2024-03-02T13:15:26;94266.16;;;18.31;55.21
13407;BME280;6774;48.208;10.766;2024-03-02T13:17:58;94266.03;;;17.80;55.70
13407;BME280;6774;48.208;10.766;2024-03-02T13:20:30;94265.25;;;17.90;55.07